Kristin D — C6XA6 — position and weather

sailwx.info

Track history (hours):
 
Tides and Currents Weather Stations Pressure Air Temp Water Temp Dewpoint Dewpoint Depression Visibility Wind Speed Wind Dir Waves Ship Positions

Kristin D

Last reported at 2017-Feb-28 09:32 UTC. Time now 2017-Feb-28 09:55 UTC.
Position N 58°57' E 005°45'.

Length 90 m; draft 4.2 m.

Type: Cargo ship. MMSI: 311003700.

Date/timePositionNaut miles runAvg speedWind from/ knotsBaromVisibWave heightAir tempDewpointWater temp
2017-Feb-28 09:32N 58°57' E 005°45'0 0.0
2017-Feb-28 08:32N 58°57' E 005°45'0 0.0
2017-Feb-28 07:32N 58°57' E 005°45'0 0.0
2017-Feb-28 06:32N 58°57' E 005°45'3 3.5
2017-Feb-28 05:34N 58°60' E 005°48'7 7.1
2017-Feb-28 04:34N 59°03' E 005°35'8 7.6
2017-Feb-28 03:34N 59°04' E 005°21'8 8.3
2017-Feb-28 02:33N 58°56' E 005°21'9 8.6
2017-Feb-28 01:34N 58°48' E 005°23'9 8.9
2017-Feb-28 00:33N 58°39' E 005°29'9 9.1
2017-Feb-27 23:33N 58°31' E 005°38'1010.0
2017-Feb-27 22:33N 58°24' E 005°51'10 9.7
2017-Feb-27 21:33N 58°18' E 006°05'9 9.5
2017-Feb-27 20:33N 58°11' E 006°18'10 9.9
2017-Feb-27 19:33N 58°05' E 006°32'1010.0
2017-Feb-27 18:33N 58°00' E 006°49'10 9.7
2017-Feb-27 17:33N 57°57' E 007°06'10 9.7
2017-Feb-27 16:33N 57°56' E 007°24'10 9.8
2017-Feb-27 15:33N 57°55' E 007°43'10 9.8
2017-Feb-27 14:33N 57°55' E 008°01'1010.1
2017-Feb-27 13:33N 57°54' E 008°20'7110.1
2017-Feb-27 06:33N 57°49' E 010°33'1211.0
2017-Feb-27 05:27N 57°44' E 010°53'1011.5
2017-Feb-27 04:33N 57°37' E 011°08'1211.8
2017-Feb-27 03:33N 57°29' E 011°24'1211.9
2017-Feb-27 02:34N 57°18' E 011°32'7111.8
2017-Feb-26 20:34N 56°14' E 012°24'1111.4
2017-Feb-26 19:33N 56°05' E 012°37'1110.7
2017-Feb-26 18:33N 55°55' E 012°45'1211.6
2017-Feb-26 17:34N 55°43' E 012°41'1111.0
2017-Feb-26 16:34N 55°32' E 012°43'1111.1
2017-Feb-26 15:34N 55°21' E 012°41'10 9.9
2017-Feb-26 14:34N 55°15' E 012°55'3410.8
2017-Feb-26 11:26N 55°01' E 013°48'910.1
2017-Feb-26 10:32N 54°58' E 014°03'10 9.7
2017-Feb-26 09:32N 54°57' E 014°20'10 9.8
2017-Feb-26 08:34N 54°56' E 014°36'10 9.9
2017-Feb-26 07:34N 54°55' E 014°53'10 9.5
2017-Feb-26 06:32N 54°54' E 015°10'100 9.1
2017-Feb-25 19:32N 54°54' E 018°04'1010.5
2017-Feb-25 18:33N 54°53' E 018°22'1010.3
2017-Feb-25 17:33N 54°51' E 018°39'1010.1
2017-Feb-25 16:34N 54°48' E 018°56'9 9.4
2017-Feb-25 15:33N 54°46' E 019°12'9 8.7
2017-Feb-25 14:34N 54°44' E 019°27'8 8.2
2017-Feb-25 13:33N 54°42' E 019°41'2 0.1
2017-Feb-23 23:20N 54°43' E 019°37'5 5.0
2017-Feb-23 22:17N 54°44' E 019°28'4 6.2
2017-Feb-23 21:34N 54°45' E 019°20'8 8.5
2017-Feb-23 20:33N 54°46' E 019°06'9 8.9
2017-Feb-23 19:34N 54°49' E 018°51'10 9.9
2017-Feb-23 18:33N 54°51' E 018°34'1010.5
2017-Feb-23 17:34N 54°53' E 018°16'10212.3
2017-Feb-23 09:14N 54°45' E 015°19'812.3
2017-Feb-23 08:33N 54°45' E 015°05'1212.4
2017-Feb-23 07:33N 54°45' E 014°43'1312.6
2017-Feb-23 06:33N 54°44' E 014°21'1312.9
2017-Feb-23 05:32N 54°44' E 013°59'4013.6
2017-Feb-23 02:33N 54°41' E 012°49'1413.5
2017-Feb-23 01:33N 54°35' E 012°28'1313.1
2017-Feb-23 00:32N 54°25' E 012°11'1212.3
2017-Feb-22 23:34N 54°14' E 012°05'5 1.9
2017-Feb-22 21:05N 54°09' E 012°07'0 0.0
2017-Feb-22 20:32N 54°09' E 012°07'0 0.0
2017-Feb-22 19:11N 54°09' E 012°07'0 0.0
2017-Feb-22 17:05N 54°09' E 012°07'0 0.0
2017-Feb-22 14:22N 54°09' E 012°07'0 0.0
2017-Feb-22 12:10N 54°09' E 012°07'0 0.0
2017-Feb-22 11:28N 54°09' E 012°07'0 0.0
2017-Feb-22 09:04N 54°09' E 012°07'0 0.0
2017-Feb-22 06:31N 54°09' E 012°07'0 0.0
2017-Feb-22 01:10N 54°09' E 012°07'0 0.0
2017-Feb-21 19:13N 54°09' E 012°07'0 0.0
2017-Feb-21 17:28N 54°09' E 012°07'0 0.0
2017-Feb-21 15:19N 54°09' E 012°07'0 0.0
2017-Feb-21 12:22N 54°09' E 012°07'0 0.0
2017-Feb-21 11:31N 54°09' E 012°07'0 0.0
2017-Feb-21 10:31N 54°09' E 012°07'0 0.0
2017-Feb-21 04:25N 54°09' E 012°07'4 5.0
2017-Feb-21 03:33N 54°13' E 012°04'7 6.9
2017-Feb-21 02:28N 54°21' E 012°04'7 7.4
2017-Feb-21 01:33N 54°27' E 012°09'8 8.2
2017-Feb-21 00:33N 54°34' E 012°14'8 8.5
2017-Feb-20 23:33N 54°42' E 012°21'24 8.0
2017-Feb-20 20:31N 55°05' E 012°37'8 8.6
2017-Feb-20 19:33N 55°13' E 012°38'9 8.8
2017-Feb-20 18:33N 55°22' E 012°38'9 9.0
2017-Feb-20 17:33N 55°30' E 012°41'1212.3
2017-Feb-20 16:33N 55°43' E 012°41'1211.9
2017-Feb-20 15:33N 55°55' E 012°39'1111.4
2017-Feb-20 14:33N 56°06' E 012°34'4811.5
2017-Feb-20 10:22N 56°47' E 011°50'1011.2
2017-Feb-20 09:31N 56°56' E 011°43'1111.4
2017-Feb-20 08:32N 57°06' E 011°34'1111.3
2017-Feb-20 07:33N 57°16' E 011°25'1111.1
2017-Feb-20 06:33N 57°26' E 011°16'1110.8
2017-Feb-20 05:33N 57°34' E 011°04'1111.1
2017-Feb-20 04:33N 57°43' E 010°51'  
Track history (hours):
 
Tides and Currents Weather Stations Pressure Air Temp Water Temp Dewpoint Dewpoint Depression Visibility Wind Speed Wind Dir Waves Ship Positions

Kristin D

Last reported at 2017-Feb-28 09:32 UTC. Time now 2017-Feb-28 09:55 UTC.
Position N 58°57' E 005°45'.

Length 90 m; draft 4.2 m.

Type: Cargo ship. MMSI: 311003700.

Date/timePositionNaut miles runAvg speedWind from/ knotsBaromVisibWave heightAir tempDewpointWater temp
2017-Feb-28 09:32N 58°57' E 005°45'0 0.0
2017-Feb-28 08:32N 58°57' E 005°45'0 0.0
2017-Feb-28 07:32N 58°57' E 005°45'0 0.0
2017-Feb-28 06:32N 58°57' E 005°45'3 3.5
2017-Feb-28 05:34N 58°60' E 005°48'7 7.1
2017-Feb-28 04:34N 59°03' E 005°35'8 7.6
2017-Feb-28 03:34N 59°04' E 005°21'8 8.3
2017-Feb-28 02:33N 58°56' E 005°21'9 8.6
2017-Feb-28 01:34N 58°48' E 005°23'9 8.9
2017-Feb-28 00:33N 58°39' E 005°29'9 9.1
2017-Feb-27 23:33N 58°31' E 005°38'1010.0
2017-Feb-27 22:33N 58°24' E 005°51'10 9.7
2017-Feb-27 21:33N 58°18' E 006°05'9 9.5
2017-Feb-27 20:33N 58°11' E 006°18'10 9.9
2017-Feb-27 19:33N 58°05' E 006°32'1010.0
2017-Feb-27 18:33N 58°00' E 006°49'10 9.7
2017-Feb-27 17:33N 57°57' E 007°06'10 9.7
2017-Feb-27 16:33N 57°56' E 007°24'10 9.8
2017-Feb-27 15:33N 57°55' E 007°43'10 9.8
2017-Feb-27 14:33N 57°55' E 008°01'1010.1
2017-Feb-27 13:33N 57°54' E 008°20'7110.1
2017-Feb-27 06:33N 57°49' E 010°33'1211.0
2017-Feb-27 05:27N 57°44' E 010°53'1011.5
2017-Feb-27 04:33N 57°37' E 011°08'1211.8
2017-Feb-27 03:33N 57°29' E 011°24'1211.9
2017-Feb-27 02:34N 57°18' E 011°32'7111.8
2017-Feb-26 20:34N 56°14' E 012°24'1111.4
2017-Feb-26 19:33N 56°05' E 012°37'1110.7
2017-Feb-26 18:33N 55°55' E 012°45'1211.6
2017-Feb-26 17:34N 55°43' E 012°41'1111.0
2017-Feb-26 16:34N 55°32' E 012°43'1111.1
2017-Feb-26 15:34N 55°21' E 012°41'10 9.9
2017-Feb-26 14:34N 55°15' E 012°55'3410.8
2017-Feb-26 11:26N 55°01' E 013°48'910.1
2017-Feb-26 10:32N 54°58' E 014°03'10 9.7
2017-Feb-26 09:32N 54°57' E 014°20'10 9.8
2017-Feb-26 08:34N 54°56' E 014°36'10 9.9
2017-Feb-26 07:34N 54°55' E 014°53'10 9.5
2017-Feb-26 06:32N 54°54' E 015°10'100 9.1
2017-Feb-25 19:32N 54°54' E 018°04'1010.5
2017-Feb-25 18:33N 54°53' E 018°22'1010.3
2017-Feb-25 17:33N 54°51' E 018°39'1010.1
2017-Feb-25 16:34N 54°48' E 018°56'9 9.4
2017-Feb-25 15:33N 54°46' E 019°12'9 8.7
2017-Feb-25 14:34N 54°44' E 019°27'8 8.2
2017-Feb-25 13:33N 54°42' E 019°41'2 0.1
2017-Feb-23 23:20N 54°43' E 019°37'5 5.0
2017-Feb-23 22:17N 54°44' E 019°28'4 6.2
2017-Feb-23 21:34N 54°45' E 019°20'8 8.5
2017-Feb-23 20:33N 54°46' E 019°06'9 8.9
2017-Feb-23 19:34N 54°49' E 018°51'10 9.9
2017-Feb-23 18:33N 54°51' E 018°34'1010.5
2017-Feb-23 17:34N 54°53' E 018°16'10212.3
2017-Feb-23 09:14N 54°45' E 015°19'812.3
2017-Feb-23 08:33N 54°45' E 015°05'1212.4
2017-Feb-23 07:33N 54°45' E 014°43'1312.6
2017-Feb-23 06:33N 54°44' E 014°21'1312.9
2017-Feb-23 05:32N 54°44' E 013°59'4013.6
2017-Feb-23 02:33N 54°41' E 012°49'1413.5
2017-Feb-23 01:33N 54°35' E 012°28'1313.1
2017-Feb-23 00:32N 54°25' E 012°11'1212.3
2017-Feb-22 23:34N 54°14' E 012°05'5 1.9
2017-Feb-22 21:05N 54°09' E 012°07'0 0.0
2017-Feb-22 20:32N 54°09' E 012°07'0 0.0
2017-Feb-22 19:11N 54°09' E 012°07'0 0.0
2017-Feb-22 17:05N 54°09' E 012°07'0 0.0
2017-Feb-22 14:22N 54°09' E 012°07'0 0.0
2017-Feb-22 12:10N 54°09' E 012°07'0 0.0
2017-Feb-22 11:28N 54°09' E 012°07'0 0.0
2017-Feb-22 09:04N 54°09' E 012°07'0 0.0
2017-Feb-22 06:31N 54°09' E 012°07'0 0.0
2017-Feb-22 01:10N 54°09' E 012°07'0 0.0
2017-Feb-21 19:13N 54°09' E 012°07'0 0.0
2017-Feb-21 17:28N 54°09' E 012°07'0 0.0
2017-Feb-21 15:19N 54°09' E 012°07'0 0.0
2017-Feb-21 12:22N 54°09' E 012°07'0 0.0
2017-Feb-21 11:31N 54°09' E 012°07'0 0.0
2017-Feb-21 10:31N 54°09' E 012°07'0 0.0
2017-Feb-21 04:25N 54°09' E 012°07'4 5.0
2017-Feb-21 03:33N 54°13' E 012°04'7 6.9
2017-Feb-21 02:28N 54°21' E 012°04'7 7.4
2017-Feb-21 01:33N 54°27' E 012°09'8 8.2
2017-Feb-21 00:33N 54°34' E 012°14'8 8.5
2017-Feb-20 23:33N 54°42' E 012°21'24 8.0
2017-Feb-20 20:31N 55°05' E 012°37'8 8.6
2017-Feb-20 19:33N 55°13' E 012°38'9 8.8
2017-Feb-20 18:33N 55°22' E 012°38'9 9.0
2017-Feb-20 17:33N 55°30' E 012°41'1212.3
2017-Feb-20 16:33N 55°43' E 012°41'1211.9
2017-Feb-20 15:33N 55°55' E 012°39'1111.4
2017-Feb-20 14:33N 56°06' E 012°34'4811.5
2017-Feb-20 10:22N 56°47' E 011°50'1011.2
2017-Feb-20 09:31N 56°56' E 011°43'1111.4
2017-Feb-20 08:32N 57°06' E 011°34'1111.3
2017-Feb-20 07:33N 57°16' E 011°25'1111.1
2017-Feb-20 06:33N 57°26' E 011°16'1110.8
2017-Feb-20 05:33N 57°34' E 011°04'1111.1
2017-Feb-20 04:33N 57°43' E 010°51'  

Dump ship's entire track history